sensor_id;sensor_type;location;lat;lon;timestamp;P1;durP1;ratioP1;P2;durP2;ratioP2
24663;SDS011;12791;50.992;13.788;2023-06-10T00:01:22;8.15;;;7.55;;
24663;SDS011;12791;50.992;13.788;2023-06-10T00:03:49;7.38;;;6.88;;
24663;SDS011;12791;50.992;13.788;2023-06-10T00:06:16;7.40;;;6.80;;
24663;SDS011;12791;50.992;13.788;2023-06-10T00:08:44;7.43;;;6.93;;
24663;SDS011;12791;50.992;13.788;2023-06-10T00:11:12;7.55;;;6.75;;
24663;SDS011;12791;50.992;13.788;2023-06-10T00:13:38;8.50;;;7.57;;
24663;SDS011;12791;50.992;13.788;2023-06-10T00:16:05;8.27;;;7.57;;
24663;SDS011;12791;50.992;13.788;2023-06-10T00:18:32;7.72;;;7.03;;
24663;SDS011;12791;50.992;13.788;2023-06-10T00:21:01;7.93;;;7.22;;
24663;SDS011;12791;50.992;13.788;2023-06-10T00:23:29;8.43;;;7.45;;
24663;SDS011;12791;50.992;13.788;2023-06-10T00:25:58;7.85;;;7.22;;
24663;SDS011;12791;50.992;13.788;2023-06-10T00:28:25;7.85;;;7.25;;
24663;SDS011;12791;50.992;13.788;2023-06-10T00:30:51;8.45;;;7.72;;
24663;SDS011;12791;50.992;13.788;2023-06-10T00:33:18;8.23;;;7.32;;
24663;SDS011;12791;50.992;13.788;2023-06-10T00:35:44;7.72;;;7.13;;
24663;SDS011;12791;50.992;13.788;2023-06-10T00:38:12;8.18;;;7.47;;
24663;SDS011;12791;50.992;13.788;2023-06-10T00:40:39;8.85;;;7.38;;
24663;SDS011;12791;50.992;13.788;2023-06-10T00:43:08;8.20;;;7.60;;
24663;SDS011;12791;50.992;13.788;2023-06-10T00:45:34;8.30;;;7.53;;
24663;SDS011;12791;50.992;13.788;2023-06-10T00:48:01;8.45;;;7.85;;
24663;SDS011;12791;50.992;13.788;2023-06-10T00:50:29;8.25;;;7.55;;
24663;SDS011;12791;50.992;13.788;2023-06-10T00:52:56;8.50;;;7.70;;
24663;SDS011;12791;50.992;13.788;2023-06-10T00:55:24;8.13;;;7.53;;
24663;SDS011;12791;50.992;13.788;2023-06-10T00:57:52;8.50;;;7.88;;
24663;SDS011;12791;50.992;13.788;2023-06-10T01:00:21;7.63;;;7.13;;
24663;SDS011;12791;50.992;13.788;2023-06-10T01:02:47;9.00;;;8.20;;
24663;SDS011;12791;50.992;13.788;2023-06-10T01:05:17;8.45;;;7.72;;
24663;SDS011;12791;50.992;13.788;2023-06-10T01:07:45;7.97;;;7.38;;
24663;SDS011;12791;50.992;13.788;2023-06-10T01:10:19;8.20;;;7.50;;
24663;SDS011;12791;50.992;13.788;2023-06-10T01:12:52;7.72;;;7.13;;
24663;SDS011;12791;50.992;13.788;2023-06-10T01:15:25;8.45;;;7.75;;
24663;SDS011;12791;50.992;13.788;2023-06-10T01:17:55;8.23;;;7.43;;
24663;SDS011;12791;50.992;13.788;2023-06-10T01:20:24;8.20;;;7.40;;
24663;SDS011;12791;50.992;13.788;2023-06-10T01:22:53;8.60;;;7.90;;
24663;SDS011;12791;50.992;13.788;2023-06-10T01:25:20;9.15;;;8.35;;
24663;SDS011;12791;50.992;13.788;2023-06-10T01:27:52;8.15;;;7.55;;
24663;SDS011;12791;50.992;13.788;2023-06-10T01:30:22;9.82;;;8.93;;
24663;SDS011;12791;50.992;13.788;2023-06-10T01:35:21;9.13;;;8.35;;
24663;SDS011;12791;50.992;13.788;2023-06-10T01:37:53;9.15;;;8.35;;
24663;SDS011;12791;50.992;13.788;2023-06-10T01:40:23;8.88;;;8.18;;
24663;SDS011;12791;50.992;13.788;2023-06-10T01:42:51;9.07;;;8.32;;
24663;SDS011;12791;50.992;13.788;2023-06-10T01:45:18;9.38;;;8.48;;
24663;SDS011;12791;50.992;13.788;2023-06-10T01:47:45;9.50;;;8.70;;
24663;SDS011;12791;50.992;13.788;2023-06-10T01:50:11;9.40;;;8.75;;
24663;SDS011;12791;50.992;13.788;2023-06-10T01:52:38;9.00;;;8.35;;
24663;SDS011;12791;50.992;13.788;2023-06-10T01:55:06;9.57;;;8.77;;
24663;SDS011;12791;50.992;13.788;2023-06-10T01:57:33;9.38;;;8.57;;
24663;SDS011;12791;50.992;13.788;2023-06-10T02:00:00;9.55;;;8.85;;
24663;SDS011;12791;50.992;13.788;2023-06-10T02:02:28;9.55;;;8.75;;
24663;SDS011;12791;50.992;13.788;2023-06-10T02:04:54;9.55;;;8.65;;
24663;SDS011;12791;50.992;13.788;2023-06-10T02:07:22;9.05;;;8.30;;
24663;SDS011;12791;50.992;13.788;2023-06-10T02:09:48;9.90;;;9.10;;
24663;SDS011;12791;50.992;13.788;2023-06-10T02:12:17;10.05;;;9.15;;
24663;SDS011;12791;50.992;13.788;2023-06-10T02:14:43;9.80;;;9.07;;
24663;SDS011;12791;50.992;13.788;2023-06-10T02:17:10;9.93;;;8.93;;
24663;SDS011;12791;50.992;13.788;2023-06-10T02:19:39;9.20;;;8.35;;
24663;SDS011;12791;50.992;13.788;2023-06-10T02:22:07;9.32;;;8.63;;
24663;SDS011;12791;50.992;13.788;2023-06-10T02:24:35;9.70;;;8.88;;
24663;SDS011;12791;50.992;13.788;2023-06-10T02:27:02;9.00;;;8.40;;
24663;SDS011;12791;50.992;13.788;2023-06-10T02:29:32;9.10;;;8.30;;
24663;SDS011;12791;50.992;13.788;2023-06-10T02:31:59;10.18;;;9.18;;
24663;SDS011;12791;50.992;13.788;2023-06-10T02:34:26;8.43;;;7.70;;
24663;SDS011;12791;50.992;13.788;2023-06-10T02:36:53;9.85;;;8.80;;
24663;SDS011;12791;50.992;13.788;2023-06-10T02:39:21;8.68;;;7.97;;
24663;SDS011;12791;50.992;13.788;2023-06-10T02:41:47;8.52;;;7.93;;
24663;SDS011;12791;50.992;13.788;2023-06-10T02:44:14;9.00;;;8.30;;
24663;SDS011;12791;50.992;13.788;2023-06-10T02:46:42;8.32;;;7.72;;
24663;SDS011;12791;50.992;13.788;2023-06-10T02:49:08;8.57;;;7.82;;
24663;SDS011;12791;50.992;13.788;2023-06-10T02:51:35;9.63;;;8.82;;
24663;SDS011;12791;50.992;13.788;2023-06-10T02:54:02;8.73;;;8.02;;
24663;SDS011;12791;50.992;13.788;2023-06-10T02:56:28;8.75;;;7.95;;
24663;SDS011;12791;50.992;13.788;2023-06-10T02:58:55;9.40;;;8.60;;
24663;SDS011;12791;50.992;13.788;2023-06-10T03:01:22;8.65;;;7.95;;
24663;SDS011;12791;50.992;13.788;2023-06-10T03:03:49;9.20;;;8.40;;
24663;SDS011;12791;50.992;13.788;2023-06-10T03:06:17;8.30;;;7.60;;
24663;SDS011;12791;50.992;13.788;2023-06-10T03:08:44;8.57;;;7.88;;
24663;SDS011;12791;50.992;13.788;2023-06-10T03:11:11;9.18;;;8.48;;
24663;SDS011;12791;50.992;13.788;2023-06-10T03:13:38;8.55;;;7.82;;
24663;SDS011;12791;50.992;13.788;2023-06-10T03:16:05;9.60;;;8.80;;
24663;SDS011;12791;50.992;13.788;2023-06-10T03:18:32;7.95;;;7.35;;
24663;SDS011;12791;50.992;13.788;2023-06-10T03:21:00;8.77;;;8.10;;
24663;SDS011;12791;50.992;13.788;2023-06-10T03:23:27;9.68;;;8.88;;
24663;SDS011;12791;50.992;13.788;2023-06-10T03:25:54;10.00;;;9.10;;
24663;SDS011;12791;50.992;13.788;2023-06-10T03:28:21;9.45;;;8.75;;
24663;SDS011;12791;50.992;13.788;2023-06-10T03:30:47;9.27;;;8.55;;
24663;SDS011;12791;50.992;13.788;2023-06-10T03:33:14;9.30;;;8.55;;
24663;SDS011;12791;50.992;13.788;2023-06-10T03:35:41;9.75;;;9.05;;
24663;SDS011;12791;50.992;13.788;2023-06-10T03:38:09;10.13;;;9.27;;
24663;SDS011;12791;50.992;13.788;2023-06-10T03:40:36;9.25;;;8.55;;
24663;SDS011;12791;50.992;13.788;2023-06-10T03:43:02;9.60;;;8.77;;
24663;SDS011;12791;50.992;13.788;2023-06-10T03:45:29;9.43;;;8.70;;
24663;SDS011;12791;50.992;13.788;2023-06-10T03:47:57;9.55;;;8.75;;
24663;SDS011;12791;50.992;13.788;2023-06-10T03:50:24;9.77;;;8.88;;
24663;SDS011;12791;50.992;13.788;2023-06-10T03:52:51;9.93;;;9.18;;
24663;SDS011;12791;50.992;13.788;2023-06-10T03:55:19;8.75;;;8.02;;
24663;SDS011;12791;50.992;13.788;2023-06-10T03:57:46;10.32;;;9.38;;
24663;SDS011;12791;50.992;13.788;2023-06-10T04:00:14;9.93;;;8.93;;
24663;SDS011;12791;50.992;13.788;2023-06-10T04:02:41;9.57;;;8.82;;
24663;SDS011;12791;50.992;13.788;2023-06-10T04:05:10;8.63;;;8.00;;
24663;SDS011;12791;50.992;13.788;2023-06-10T04:07:37;9.63;;;8.75;;
24663;SDS011;12791;50.992;13.788;2023-06-10T04:10:06;8.88;;;8.07;;
24663;SDS011;12791;50.992;13.788;2023-06-10T04:12:35;9.65;;;8.82;;
24663;SDS011;12791;50.992;13.788;2023-06-10T04:15:01;8.68;;;7.93;;
24663;SDS011;12791;50.992;13.788;2023-06-10T04:17:28;8.55;;;7.95;;
24663;SDS011;12791;50.992;13.788;2023-06-10T04:19:55;9.45;;;8.55;;
24663;SDS011;12791;50.992;13.788;2023-06-10T04:22:22;8.30;;;7.60;;
24663;SDS011;12791;50.992;13.788;2023-06-10T04:24:49;8.57;;;7.95;;
24663;SDS011;12791;50.992;13.788;2023-06-10T04:27:16;8.30;;;7.60;;
24663;SDS011;12791;50.992;13.788;2023-06-10T04:29:44;8.80;;;8.18;;
24663;SDS011;12791;50.992;13.788;2023-06-10T04:32:11;8.75;;;8.05;;
24663;SDS011;12791;50.992;13.788;2023-06-10T04:34:37;8.15;;;7.45;;
24663;SDS011;12791;50.992;13.788;2023-06-10T04:37:05;7.93;;;7.40;;
24663;SDS011;12791;50.992;13.788;2023-06-10T04:39:31;9.07;;;8.38;;
24663;SDS011;12791;50.992;13.788;2023-06-10T04:41:58;8.75;;;7.95;;
24663;SDS011;12791;50.992;13.788;2023-06-10T04:44:26;8.63;;;8.02;;
24663;SDS011;12791;50.992;13.788;2023-06-10T04:46:54;8.73;;;8.02;;
24663;SDS011;12791;50.992;13.788;2023-06-10T04:49:21;8.40;;;7.80;;
24663;SDS011;12791;50.992;13.788;2023-06-10T04:51:47;8.57;;;7.95;;
24663;SDS011;12791;50.992;13.788;2023-06-10T04:54:16;9.80;;;9.00;;
24663;SDS011;12791;50.992;13.788;2023-06-10T04:56:43;8.88;;;8.07;;
24663;SDS011;12791;50.992;13.788;2023-06-10T04:59:10;8.65;;;7.97;;
24663;SDS011;12791;50.992;13.788;2023-06-10T05:01:36;9.38;;;8.68;;
24663;SDS011;12791;50.992;13.788;2023-06-10T05:04:04;9.05;;;8.25;;
24663;SDS011;12791;50.992;13.788;2023-06-10T05:06:31;9.00;;;8.20;;
24663;SDS011;12791;50.992;13.788;2023-06-10T05:08:57;8.68;;;8.02;;
24663;SDS011;12791;50.992;13.788;2023-06-10T05:11:24;9.88;;;8.98;;
24663;SDS011;12791;50.992;13.788;2023-06-10T05:13:51;10.00;;;9.18;;
24663;SDS011;12791;50.992;13.788;2023-06-10T05:16:17;9.48;;;8.65;;
24663;SDS011;12791;50.992;13.788;2023-06-10T05:18:44;9.60;;;8.90;;
24663;SDS011;12791;50.992;13.788;2023-06-10T05:21:12;9.48;;;8.82;;
24663;SDS011;12791;50.992;13.788;2023-06-10T05:23:38;10.27;;;9.48;;
24663;SDS011;12791;50.992;13.788;2023-06-10T05:26:05;9.77;;;9.05;;
24663;SDS011;12791;50.992;13.788;2023-06-10T05:28:32;10.02;;;9.23;;
24663;SDS011;12791;50.992;13.788;2023-06-10T05:30:58;10.55;;;9.75;;
24663;SDS011;12791;50.992;13.788;2023-06-10T05:33:25;10.60;;;9.70;;
24663;SDS011;12791;50.992;13.788;2023-06-10T05:35:52;10.15;;;9.18;;
24663;SDS011;12791;50.992;13.788;2023-06-10T05:38:19;11.52;;;9.40;;
24663;SDS011;12791;50.992;13.788;2023-06-10T05:40:46;11.05;;;10.05;;
24663;SDS011;12791;50.992;13.788;2023-06-10T05:43:13;10.18;;;9.23;;
24663;SDS011;12791;50.992;13.788;2023-06-10T05:45:41;11.48;;;10.57;;
24663;SDS011;12791;50.992;13.788;2023-06-10T05:48:08;15.68;;;10.95;;
24663;SDS011;12791;50.992;13.788;2023-06-10T05:50:34;9.90;;;9.05;;
24663;SDS011;12791;50.992;13.788;2023-06-10T05:53:03;9.02;;;8.27;;
24663;SDS011;12791;50.992;13.788;2023-06-10T05:55:33;9.38;;;8.57;;
24663;SDS011;12791;50.992;13.788;2023-06-10T05:57:59;11.52;;;10.52;;
24663;SDS011;12791;50.992;13.788;2023-06-10T06:00:26;9.88;;;9.10;;
24663;SDS011;12791;50.992;13.788;2023-06-10T06:02:53;9.27;;;8.68;;
24663;SDS011;12791;50.992;13.788;2023-06-10T06:05:20;9.40;;;8.68;;
24663;SDS011;12791;50.992;13.788;2023-06-10T06:07:47;10.05;;;9.13;;
24663;SDS011;12791;50.992;13.788;2023-06-10T06:10:13;8.45;;;7.78;;
24663;SDS011;12791;50.992;13.788;2023-06-10T06:12:41;8.85;;;8.05;;
24663;SDS011;12791;50.992;13.788;2023-06-10T06:15:09;7.68;;;7.07;;
24663;SDS011;12791;50.992;13.788;2023-06-10T06:17:36;7.95;;;7.25;;
24663;SDS011;12791;50.992;13.788;2023-06-10T06:20:03;7.88;;;7.28;;
24663;SDS011;12791;50.992;13.788;2023-06-10T06:22:30;7.53;;;6.93;;
24663;SDS011;12791;50.992;13.788;2023-06-10T06:24:57;8.07;;;7.38;;
24663;SDS011;12791;50.992;13.788;2023-06-10T06:27:23;9.00;;;8.30;;
24663;SDS011;12791;50.992;13.788;2023-06-10T06:29:51;8.45;;;7.80;;
24663;SDS011;12791;50.992;13.788;2023-06-10T06:32:18;7.82;;;7.10;;
24663;SDS011;12791;50.992;13.788;2023-06-10T06:34:45;7.50;;;6.90;;
24663;SDS011;12791;50.992;13.788;2023-06-10T06:37:14;7.13;;;6.55;;
24663;SDS011;12791;50.992;13.788;2023-06-10T06:39:40;6.55;;;6.05;;
24663;SDS011;12791;50.992;13.788;2023-06-10T06:42:07;7.35;;;6.78;;
24663;SDS011;12791;50.992;13.788;2023-06-10T06:44:34;6.65;;;6.15;;
24663;SDS011;12791;50.992;13.788;2023-06-10T06:47:02;5.72;;;5.43;;
24663;SDS011;12791;50.992;13.788;2023-06-10T06:49:29;5.90;;;5.35;;
24663;SDS011;12791;50.992;13.788;2023-06-10T06:51:55;6.25;;;5.85;;
24663;SDS011;12791;50.992;13.788;2023-06-10T06:54:22;9.73;;;8.70;;
24663;SDS011;12791;50.992;13.788;2023-06-10T06:56:48;11.18;;;10.15;;
24663;SDS011;12791;50.992;13.788;2023-06-10T06:59:16;9.63;;;8.93;;
24663;SDS011;12791;50.992;13.788;2023-06-10T07:01:44;10.27;;;9.48;;
24663;SDS011;12791;50.992;13.788;2023-06-10T07:04:14;10.63;;;9.80;;
24663;SDS011;12791;50.992;13.788;2023-06-10T07:06:41;8.95;;;8.25;;
24663;SDS011;12791;50.992;13.788;2023-06-10T07:09:08;8.65;;;7.95;;
24663;SDS011;12791;50.992;13.788;2023-06-10T07:11:34;8.70;;;7.90;;
24663;SDS011;12791;50.992;13.788;2023-06-10T07:14:01;8.70;;;8.00;;
24663;SDS011;12791;50.992;13.788;2023-06-10T07:16:27;9.02;;;8.23;;
24663;SDS011;12791;50.992;13.788;2023-06-10T07:18:54;8.95;;;8.27;;
24663;SDS011;12791;50.992;13.788;2023-06-10T07:21:22;9.05;;;8.23;;
24663;SDS011;12791;50.992;13.788;2023-06-10T07:23:49;8.43;;;7.82;;
24663;SDS011;12791;50.992;13.788;2023-06-10T07:26:18;8.68;;;7.97;;
24663;SDS011;12791;50.992;13.788;2023-06-10T07:28:45;8.38;;;7.68;;
24663;SDS011;12791;50.992;13.788;2023-06-10T07:31:11;8.13;;;7.53;;
24663;SDS011;12791;50.992;13.788;2023-06-10T07:33:38;8.73;;;7.78;;
24663;SDS011;12791;50.992;13.788;2023-06-10T07:36:05;8.82;;;8.13;;
24663;SDS011;12791;50.992;13.788;2023-06-10T07:38:33;8.25;;;7.65;;
24663;SDS011;12791;50.992;13.788;2023-06-10T07:41:00;8.35;;;7.65;;
24663;SDS011;12791;50.992;13.788;2023-06-10T07:43:26;8.60;;;7.93;;
24663;SDS011;12791;50.992;13.788;2023-06-10T07:45:53;8.52;;;7.80;;
24663;SDS011;12791;50.992;13.788;2023-06-10T07:48:19;8.02;;;7.43;;
24663;SDS011;12791;50.992;13.788;2023-06-10T07:50:46;8.65;;;7.95;;
24663;SDS011;12791;50.992;13.788;2023-06-10T07:53:13;8.43;;;7.78;;
24663;SDS011;12791;50.992;13.788;2023-06-10T07:55:40;8.20;;;7.70;;
24663;SDS011;12791;50.992;13.788;2023-06-10T07:58:07;9.07;;;8.27;;
24663;SDS011;12791;50.992;13.788;2023-06-10T08:00:34;8.13;;;7.47;;
24663;SDS011;12791;50.992;13.788;2023-06-10T08:03:00;7.65;;;7.03;;
24663;SDS011;12791;50.992;13.788;2023-06-10T08:05:27;7.70;;;7.10;;
24663;SDS011;12791;50.992;13.788;2023-06-10T08:07:54;6.82;;;6.30;;
24663;SDS011;12791;50.992;13.788;2023-06-10T08:10:21;6.40;;;5.90;;
24663;SDS011;12791;50.992;13.788;2023-06-10T08:12:49;7.03;;;6.53;;
24663;SDS011;12791;50.992;13.788;2023-06-10T08:15:16;6.25;;;5.75;;
24663;SDS011;12791;50.992;13.788;2023-06-10T08:17:43;7.03;;;6.45;;
24663;SDS011;12791;50.992;13.788;2023-06-10T08:20:09;6.68;;;6.20;;
24663;SDS011;12791;50.992;13.788;2023-06-10T08:22:36;6.47;;;6.07;;
24663;SDS011;12791;50.992;13.788;2023-06-10T08:25:04;6.75;;;6.25;;
24663;SDS011;12791;50.992;13.788;2023-06-10T08:27:31;6.75;;;6.28;;
24663;SDS011;12791;50.992;13.788;2023-06-10T08:29:59;6.72;;;6.15;;
24663;SDS011;12791;50.992;13.788;2023-06-10T08:32:25;6.75;;;6.28;;
24663;SDS011;12791;50.992;13.788;2023-06-10T08:34:52;6.55;;;5.93;;
24663;SDS011;12791;50.992;13.788;2023-06-10T08:37:18;6.47;;;6.07;;
24663;SDS011;12791;50.992;13.788;2023-06-10T08:39:45;7.60;;;7.00;;
24663;SDS011;12791;50.992;13.788;2023-06-10T08:42:15;6.90;;;6.47;;
24663;SDS011;12791;50.992;13.788;2023-06-10T08:44:48;6.25;;;5.85;;
24663;SDS011;12791;50.992;13.788;2023-06-10T08:47:19;5.97;;;5.57;;
24663;SDS011;12791;50.992;13.788;2023-06-10T08:49:47;6.53;;;6.10;;
24663;SDS011;12791;50.992;13.788;2023-06-10T08:52:15;6.65;;;6.25;;
24663;SDS011;12791;50.992;13.788;2023-06-10T08:54:43;7.13;;;6.63;;
24663;SDS011;12791;50.992;13.788;2023-06-10T08:57:15;6.97;;;6.30;;
24663;SDS011;12791;50.992;13.788;2023-06-10T08:59:43;8.13;;;7.53;;
24663;SDS011;12791;50.992;13.788;2023-06-10T09:02:10;7.63;;;7.03;;
24663;SDS011;12791;50.992;13.788;2023-06-10T09:04:38;7.43;;;6.93;;
24663;SDS011;12791;50.992;13.788;2023-06-10T09:07:05;8.32;;;7.63;;
24663;SDS011;12791;50.992;13.788;2023-06-10T09:09:32;7.57;;;6.97;;
24663;SDS011;12791;50.992;13.788;2023-06-10T09:12:01;7.47;;;6.97;;
24663;SDS011;12791;50.992;13.788;2023-06-10T09:14:28;6.85;;;6.28;;
24663;SDS011;12791;50.992;13.788;2023-06-10T09:16:54;7.88;;;7.28;;
24663;SDS011;12791;50.992;13.788;2023-06-10T09:19:22;7.75;;;7.15;;
24663;SDS011;12791;50.992;13.788;2023-06-10T09:21:52;7.88;;;7.18;;
24663;SDS011;12791;50.992;13.788;2023-06-10T09:24:18;6.88;;;6.38;;
24663;SDS011;12791;50.992;13.788;2023-06-10T09:26:46;8.15;;;7.20;;
24663;SDS011;12791;50.992;13.788;2023-06-10T09:29:13;7.20;;;6.68;;
24663;SDS011;12791;50.992;13.788;2023-06-10T09:31:39;7.35;;;6.78;;
24663;SDS011;12791;50.992;13.788;2023-06-10T09:34:07;7.32;;;6.82;;
24663;SDS011;12791;50.992;13.788;2023-06-10T09:36:35;7.57;;;7.07;;
24663;SDS011;12791;50.992;13.788;2023-06-10T09:39:03;7.75;;;7.22;;
24663;SDS011;12791;50.992;13.788;2023-06-10T09:41:33;6.90;;;6.40;;
24663;SDS011;12791;50.992;13.788;2023-06-10T09:44:00;7.50;;;7.00;;
24663;SDS011;12791;50.992;13.788;2023-06-10T09:46:30;8.10;;;7.50;;
24663;SDS011;12791;50.992;13.788;2023-06-10T09:48:58;7.70;;;7.07;;
24663;SDS011;12791;50.992;13.788;2023-06-10T09:51:25;7.72;;;7.13;;
24663;SDS011;12791;50.992;13.788;2023-06-10T09:53:51;7.68;;;7.07;;
24663;SDS011;12791;50.992;13.788;2023-06-10T09:56:20;7.82;;;7.22;;
24663;SDS011;12791;50.992;13.788;2023-06-10T09:58:49;6.97;;;6.57;;
24663;SDS011;12791;50.992;13.788;2023-06-10T10:01:19;7.03;;;6.60;;
24663;SDS011;12791;50.992;13.788;2023-06-10T10:03:46;7.60;;;6.90;;
24663;SDS011;12791;50.992;13.788;2023-06-10T10:06:14;7.47;;;6.88;;
24663;SDS011;12791;50.992;13.788;2023-06-10T10:08:41;7.50;;;6.90;;
24663;SDS011;12791;50.992;13.788;2023-06-10T10:11:08;7.63;;;7.03;;
24663;SDS011;12791;50.992;13.788;2023-06-10T10:13:36;6.53;;;6.13;;
24663;SDS011;12791;50.992;13.788;2023-06-10T10:16:06;7.47;;;6.88;;
24663;SDS011;12791;50.992;13.788;2023-06-10T10:18:36;7.35;;;6.75;;
24663;SDS011;12791;50.992;13.788;2023-06-10T10:21:05;7.30;;;6.90;;
24663;SDS011;12791;50.992;13.788;2023-06-10T10:23:37;7.43;;;6.88;;
24663;SDS011;12791;50.992;13.788;2023-06-10T10:26:10;6.57;;;5.82;;
24663;SDS011;12791;50.992;13.788;2023-06-10T10:28:40;6.70;;;6.20;;
24663;SDS011;12791;50.992;13.788;2023-06-10T10:31:10;6.73;;;6.20;;
24663;SDS011;12791;50.992;13.788;2023-06-10T10:33:45;6.55;;;6.15;;
24663;SDS011;12791;50.992;13.788;2023-06-10T10:36:21;6.40;;;5.95;;
24663;SDS011;12791;50.992;13.788;2023-06-10T10:38:48;7.53;;;6.78;;
24663;SDS011;12791;50.992;13.788;2023-06-10T10:41:15;7.25;;;6.57;;
24663;SDS011;12791;50.992;13.788;2023-06-10T10:43:44;6.38;;;5.97;;
24663;SDS011;12791;50.992;13.788;2023-06-10T10:46:13;7.22;;;6.05;;
24663;SDS011;12791;50.992;13.788;2023-06-10T10:48:41;6.65;;;6.05;;
24663;SDS011;12791;50.992;13.788;2023-06-10T10:51:08;6.38;;;5.88;;
24663;SDS011;12791;50.992;13.788;2023-06-10T10:53:36;7.28;;;5.97;;
24663;SDS011;12791;50.992;13.788;2023-06-10T10:56:07;6.18;;;5.47;;
24663;SDS011;12791;50.992;13.788;2023-06-10T10:58:38;6.22;;;5.75;;
24663;SDS011;12791;50.992;13.788;2023-06-10T11:01:12;5.57;;;5.18;;
24663;SDS011;12791;50.992;13.788;2023-06-10T11:03:42;5.63;;;5.22;;
24663;SDS011;12791;50.992;13.788;2023-06-10T11:06:12;5.15;;;4.75;;
24663;SDS011;12791;50.992;13.788;2023-06-10T11:08:46;5.60;;;5.20;;
24663;SDS011;12791;50.992;13.788;2023-06-10T11:11:17;5.82;;;5.13;;
24663;SDS011;12791;50.992;13.788;2023-06-10T11:13:57;5.72;;;5.22;;
24663;SDS011;12791;50.992;13.788;2023-06-10T11:16:28;5.53;;;5.07;;
24663;SDS011;12791;50.992;13.788;2023-06-10T11:18:55;5.90;;;5.45;;
24663;SDS011;12791;50.992;13.788;2023-06-10T11:21:23;5.78;;;5.38;;
24663;SDS011;12791;50.992;13.788;2023-06-10T11:23:50;5.75;;;5.28;;
24663;SDS011;12791;50.992;13.788;2023-06-10T11:26:18;6.10;;;5.60;;
24663;SDS011;12791;50.992;13.788;2023-06-10T11:31:40;5.22;;;4.70;;
24663;SDS011;12791;50.992;13.788;2023-06-10T11:34:12;6.25;;;5.50;;
24663;SDS011;12791;50.992;13.788;2023-06-10T11:36:40;5.88;;;5.30;;
24663;SDS011;12791;50.992;13.788;2023-06-10T11:39:10;6.32;;;5.72;;
24663;SDS011;12791;50.992;13.788;2023-06-10T11:41:38;6.38;;;5.97;;
24663;SDS011;12791;50.992;13.788;2023-06-10T11:44:07;6.90;;;6.35;;
24663;SDS011;12791;50.992;13.788;2023-06-10T11:46:35;6.57;;;5.97;;
24663;SDS011;12791;50.992;13.788;2023-06-10T11:49:03;8.63;;;6.25;;
24663;SDS011;12791;50.992;13.788;2023-06-10T11:51:32;6.65;;;6.15;;
24663;SDS011;12791;50.992;13.788;2023-06-10T11:54:00;6.50;;;6.00;;
24663;SDS011;12791;50.992;13.788;2023-06-10T11:56:27;6.22;;;5.68;;
24663;SDS011;12791;50.992;13.788;2023-06-10T11:58:56;6.45;;;5.95;;
24663;SDS011;12791;50.992;13.788;2023-06-10T12:01:26;6.57;;;5.97;;
24663;SDS011;12791;50.992;13.788;2023-06-10T12:03:56;5.93;;;5.35;;
24663;SDS011;12791;50.992;13.788;2023-06-10T12:06:25;6.10;;;5.60;;
24663;SDS011;12791;50.992;13.788;2023-06-10T12:08:53;6.40;;;5.68;;
24663;SDS011;12791;50.992;13.788;2023-06-10T12:11:19;8.95;;;6.03;;
24663;SDS011;12791;50.992;13.788;2023-06-10T12:13:47;7.05;;;5.90;;
24663;SDS011;12791;50.992;13.788;2023-06-10T12:16:14;7.78;;;5.60;;
24663;SDS011;12791;50.992;13.788;2023-06-10T12:18:42;5.97;;;5.57;;
24663;SDS011;12791;50.992;13.788;2023-06-10T12:21:20;6.90;;;5.75;;
24663;SDS011;12791;50.992;13.788;2023-06-10T12:24:01;7.68;;;5.90;;
24663;SDS011;12791;50.992;13.788;2023-06-10T12:26:35;6.63;;;5.75;;
24663;SDS011;12791;50.992;13.788;2023-06-10T12:29:12;6.38;;;5.28;;
24663;SDS011;12791;50.992;13.788;2023-06-10T12:31:54;6.80;;;6.10;;
24663;SDS011;12791;50.992;13.788;2023-06-10T12:34:27;6.30;;;5.80;;
24663;SDS011;12791;50.992;13.788;2023-06-10T12:37:04;4.93;;;4.43;;
24663;SDS011;12791;50.992;13.788;2023-06-10T12:39:50;5.60;;;5.20;;
24663;SDS011;12791;50.992;13.788;2023-06-10T12:42:18;5.75;;;5.20;;
24663;SDS011;12791;50.992;13.788;2023-06-10T12:44:52;5.60;;;5.20;;
24663;SDS011;12791;50.992;13.788;2023-06-10T12:47:19;6.35;;;5.72;;
24663;SDS011;12791;50.992;13.788;2023-06-10T12:49:46;5.85;;;5.30;;
24663;SDS011;12791;50.992;13.788;2023-06-10T12:52:12;6.70;;;5.82;;
24663;SDS011;12791;50.992;13.788;2023-06-10T12:54:39;6.00;;;5.43;;
24663;SDS011;12791;50.992;13.788;2023-06-10T12:57:07;5.80;;;5.07;;
24663;SDS011;12791;50.992;13.788;2023-06-10T12:59:35;5.70;;;5.03;;
24663;SDS011;12791;50.992;13.788;2023-06-10T13:02:02;5.40;;;5.00;;
24663;SDS011;12791;50.992;13.788;2023-06-10T13:04:29;5.47;;;5.00;;
24663;SDS011;12791;50.992;13.788;2023-06-10T13:06:55;7.05;;;5.55;;
24663;SDS011;12791;50.992;13.788;2023-06-10T13:09:24;8.48;;;6.03;;
24663;SDS011;12791;50.992;13.788;2023-06-10T13:11:50;6.10;;;5.60;;
24663;SDS011;12791;50.992;13.788;2023-06-10T13:14:19;5.40;;;5.00;;
24663;SDS011;12791;50.992;13.788;2023-06-10T13:16:45;5.20;;;4.63;;
24663;SDS011;12791;50.992;13.788;2023-06-10T13:19:12;5.43;;;4.55;;
24663;SDS011;12791;50.992;13.788;2023-06-10T13:21:38;5.65;;;4.57;;
24663;SDS011;12791;50.992;13.788;2023-06-10T13:24:05;5.68;;;4.95;;
24663;SDS011;12791;50.992;13.788;2023-06-10T13:26:32;6.78;;;4.95;;
24663;SDS011;12791;50.992;13.788;2023-06-10T13:28:59;7.53;;;4.63;;
24663;SDS011;12791;50.992;13.788;2023-06-10T13:31:27;5.53;;;4.63;;
24663;SDS011;12791;50.992;13.788;2023-06-10T13:33:53;4.43;;;4.13;;
24663;SDS011;12791;50.992;13.788;2023-06-10T13:36:20;5.00;;;3.95;;
24663;SDS011;12791;50.992;13.788;2023-06-10T13:38:46;4.95;;;4.65;;
24663;SDS011;12791;50.992;13.788;2023-06-10T13:41:13;4.68;;;4.30;;
24663;SDS011;12791;50.992;13.788;2023-06-10T13:43:40;6.65;;;4.50;;
24663;SDS011;12791;50.992;13.788;2023-06-10T13:46:06;5.10;;;4.40;;
24663;SDS011;12791;50.992;13.788;2023-06-10T13:48:34;5.22;;;4.82;;
24663;SDS011;12791;50.992;13.788;2023-06-10T13:51:01;5.97;;;4.70;;
24663;SDS011;12791;50.992;13.788;2023-06-10T13:53:28;4.50;;;3.95;;
24663;SDS011;12791;50.992;13.788;2023-06-10T13:55:54;5.75;;;4.63;;
24663;SDS011;12791;50.992;13.788;2023-06-10T13:58:21;6.00;;;4.40;;
24663;SDS011;12791;50.992;13.788;2023-06-10T14:00:47;5.00;;;4.50;;
24663;SDS011;12791;50.992;13.788;2023-06-10T14:03:14;4.38;;;4.05;;
24663;SDS011;12791;50.992;13.788;2023-06-10T14:05:42;5.25;;;4.82;;
24663;SDS011;12791;50.992;13.788;2023-06-10T14:08:08;6.28;;;4.20;;
24663;SDS011;12791;50.992;13.788;2023-06-10T14:10:35;4.32;;;3.90;;
24663;SDS011;12791;50.992;13.788;2023-06-10T14:13:02;5.25;;;4.38;;
24663;SDS011;12791;50.992;13.788;2023-06-10T14:15:28;4.55;;;4.25;;
24663;SDS011;12791;50.992;13.788;2023-06-10T14:17:55;4.40;;;4.10;;
24663;SDS011;12791;50.992;13.788;2023-06-10T14:20:22;4.43;;;4.00;;
24663;SDS011;12791;50.992;13.788;2023-06-10T14:22:51;4.88;;;4.25;;
24663;SDS011;12791;50.992;13.788;2023-06-10T14:25:18;4.75;;;4.25;;
24663;SDS011;12791;50.992;13.788;2023-06-10T14:27:45;4.20;;;3.80;;
24663;SDS011;12791;50.992;13.788;2023-06-10T14:30:12;3.90;;;3.60;;
24663;SDS011;12791;50.992;13.788;2023-06-10T14:32:39;4.38;;;4.10;;
24663;SDS011;12791;50.992;13.788;2023-06-10T14:35:06;4.30;;;4.00;;
24663;SDS011;12791;50.992;13.788;2023-06-10T14:37:33;4.07;;;3.85;;
24663;SDS011;12791;50.992;13.788;2023-06-10T14:40:01;4.65;;;4.20;;
24663;SDS011;12791;50.992;13.788;2023-06-10T14:42:28;4.15;;;3.85;;